Time;durP1;ratioP1;P1;durP2;ratioP2;P2;SDS_P1;SDS_P2;PMS_P1;PMS_P2;Temp;Humidity;BMP_temperature;BMP_pressure;BME280_temperature;BME280_humidity;BME280_pressure;Samples;Min_cycle;Max_cycle;Signal;HPM_P1;HPM_P2
2023/11/01 00:00:43;;;;;;;1.80;0.20;;;;;;;5.97;57.90;100452.66;5001377;28;20048;-68
2023/11/01 00:03:08;;;;;;;0.50;0.10;;;;;;;5.95;57.74;100451.84;4999070;28;20091;-69
2023/11/01 00:05:34;;;;;;;3.40;0.10;;;;;;;6.01;58.10;100451.66;5000283;28;20034;-70
2023/11/01 00:07:59;;;;;;;1.85;0.43;;;;;;;5.83;58.67;100444.38;4999735;28;20132;-69
2023/11/01 00:10:25;;;;;;;1.10;0.30;;;;;;;5.96;57.98;100435.38;5002115;28;20460;-70
2023/11/01 00:12:50;;;;;;;2.33;0.70;;;;;;;5.91;58.19;100426.88;4999626;28;20492;-69
2023/11/01 00:15:16;;;;;;;2.05;0.20;;;;;;;5.87;58.26;100425.25;4999739;28;20034;-69
2023/11/01 00:17:42;;;;;;;1.08;0.20;;;;;;;5.79;58.65;100427.19;5004118;28;20073;-70
2023/11/01 00:20:08;;;;;;;5.32;0.20;;;;;;;5.81;58.73;100420.22;5000739;28;20034;-70
2023/11/01 00:22:34;;;;;;;4.60;0.65;;;;;;;5.84;58.50;100420.16;5001157;28;20049;-70
2023/11/01 00:25:00;;;;;;;2.85;0.22;;;;;;;5.68;59.02;100417.09;4988548;28;20041;-69
2023/11/01 00:27:30;;;;;;;2.55;0.30;;;;;;;5.65;59.17;100412.84;5001208;28;20579;-70
2023/11/01 00:29:57;;;;;;;4.28;0.40;;;;;;;5.56;59.12;100410.50;5008574;28;20029;-69
2023/11/01 00:32:22;;;;;;;1.15;0.13;;;;;;;5.53;59.10;100410.59;5002360;28;20038;-70
2023/11/01 00:34:48;;;;;;;1.25;0.40;;;;;;;5.48;59.44;100412.47;5009954;28;20043;-70
2023/11/01 00:37:14;;;;;;;2.25;0.30;;;;;;;5.32;59.76;100406.81;5001722;28;20041;-70
2023/11/01 00:39:40;;;;;;;2.75;0.57;;;;;;;5.38;59.22;100408.41;5005291;28;20032;-70
2023/11/01 00:42:05;;;;;;;4.57;0.40;;;;;;;5.25;59.99;100408.72;4998991;28;20052;-70
2023/11/01 00:44:31;;;;;;;3.13;0.60;;;;;;;5.33;59.68;100412.88;5007472;28;20030;-70
2023/11/01 00:46:56;;;;;;;5.72;1.45;;;;;;;5.37;59.43;100404.09;4999058;28;20440;-69
2023/11/01 00:49:22;;;;;;;2.80;0.60;;;;;;;5.20;59.79;100407.13;5003396;28;20369;-72
2023/11/01 00:51:47;;;;;;;2.83;0.68;;;;;;;5.33;59.80;100407.69;5002924;28;20025;-72
2023/11/01 00:54:13;;;;;;;1.10;0.50;;;;;;;5.35;59.81;100416.28;4999129;28;20404;-72
2023/11/01 00:56:39;;;;;;;6.10;1.58;;;;;;;5.29;60.01;100421.59;4990074;28;20040;-71
2023/11/01 00:59:05;;;;;;;4.28;1.08;;;;;;;5.45;59.64;100413.38;4998043;28;20048;-72
2023/11/01 01:01:31;;;;;;;8.50;1.92;;;;;;;5.34;60.19;100412.81;4990822;28;20038;-71
2023/11/01 01:03:58;;;;;;;6.60;1.25;;;;;;;5.39;60.44;100417.88;4997352;28;20041;-72
2023/11/01 01:06:24;;;;;;;5.53;2.42;;;;;;;5.60;59.58;100408.69;5003846;28;20065;-71
2023/11/01 01:08:50;;;;;;;9.50;2.38;;;;;;;5.62;59.98;100410.34;5006785;28;20121;-72
2023/11/01 01:11:17;;;;;;;7.90;2.33;;;;;;;5.63;59.69;100406.84;5003010;28;20172;-75
2023/11/01 01:13:44;;;;;;;5.07;2.17;;;;;;;5.81;59.31;100394.28;4987029;28;20579;-72
2023/11/01 01:16:09;;;;;;;3.70;2.03;;;;;;;5.77;59.19;100400.44;4993560;28;20124;-72
2023/11/01 01:18:35;;;;;;;6.38;2.22;;;;;;;5.76;59.67;100406.53;5001550;28;20037;-72
2023/11/01 01:21:01;;;;;;;5.00;2.35;;;;;;;5.63;59.92;100404.25;4999039;28;20088;-72
2023/11/01 01:23:27;;;;;;;4.85;2.72;;;;;;;5.90;59.60;100394.03;5007829;28;20044;-73
2023/11/01 01:25:52;;;;;;;4.43;2.20;;;;;;;5.85;59.87;100390.72;4993764;28;20033;-72
2023/11/01 01:28:18;;;;;;;6.35;2.10;;;;;;;6.04;59.17;100386.72;4999335;28;21017;-72
2023/11/01 01:30:43;;;;;;;4.93;3.03;;;;;;;5.83;59.57;100385.56;5005535;28;20036;-74
2023/11/01 01:33:09;;;;;;;4.47;2.10;;;;;;;5.87;60.04;100378.56;4999306;28;20049;-70
2023/11/01 01:35:34;;;;;;;3.17;2.47;;;;;;;5.96;60.04;100383.47;5007899;28;20036;-72
2023/11/01 01:38:00;;;;;;;9.30;3.17;;;;;;;5.98;59.91;100381.69;4999752;28;20339;-72
2023/11/01 01:40:26;;;;;;;3.50;2.30;;;;;;;6.20;59.20;100373.31;5005183;28;20167;-72
2023/11/01 01:42:52;;;;;;;7.32;3.40;;;;;;;6.09;59.41;100369.25;5005649;28;20106;-74
2023/11/01 01:45:18;;;;;;;11.52;3.42;;;;;;;6.04;59.49;100365.13;5004537;28;21309;-75
2023/11/01 01:47:44;;;;;;;8.63;3.30;;;;;;;6.09;59.84;100374.44;5006797;28;20042;-74
2023/11/01 01:50:09;;;;;;;8.73;3.95;;;;;;;5.98;59.68;100366.13;4988389;28;20109;-74
2023/11/01 01:52:35;;;;;;;6.20;3.10;;;;;;;6.04;59.92;100367.72;4997468;28;20468;-73
2023/11/01 01:55:02;;;;;;;9.68;3.28;;;;;;;6.00;59.78;100368.69;4989720;28;20617;-73
2023/11/01 01:57:29;;;;;;;5.80;3.65;;;;;;;6.06;59.86;100355.53;5006053;28;20045;-73
2023/11/01 01:59:56;;;;;;;5.03;3.25;;;;;;;6.03;59.80;100368.59;4993301;28;20037;-72
2023/11/01 02:02:24;;;;;;;6.35;3.55;;;;;;;6.01;60.14;100360.00;4999030;28;20037;-72
2023/11/01 02:04:49;;;;;;;8.27;3.80;;;;;;;6.18;59.69;100357.75;4991905;28;21459;-72
2023/11/01 02:07:15;;;;;;;9.65;3.63;;;;;;;6.05;60.10;100352.09;4986614;28;20034;-72
2023/11/01 02:09:41;;;;;;;8.93;3.65;;;;;;;6.20;59.88;100352.53;5007141;28;20025;-73
2023/11/01 02:12:07;;;;;;;6.85;3.40;;;;;;;6.09;60.28;100348.50;5003939;28;20038;-73
2023/11/01 02:14:32;;;;;;;6.22;3.42;;;;;;;6.05;60.09;100346.06;5006563;28;20132;-72
2023/11/01 02:16:58;;;;;;;12.27;3.80;;;;;;;6.12;60.18;100346.72;5003118;28;20073;-68
2023/11/01 02:19:23;;;;;;;10.77;4.25;;;;;;;6.05;60.69;100340.88;4994436;28;20087;-65
2023/11/01 02:21:49;;;;;;;7.03;4.20;;;;;;;6.19;60.53;100337.84;5006110;28;20038;-65
2023/11/01 02:24:15;;;;;;;9.05;3.92;;;;;;;5.99;60.31;100331.50;4999092;28;20104;-67
2023/11/01 02:26:40;;;;;;;9.85;4.85;;;;;;;6.13;60.40;100338.91;5003315;28;20025;-67
2023/11/01 02:29:07;;;;;;;9.23;3.85;;;;;;;6.02;60.84;100336.63;4997480;28;20077;-67
2023/11/01 02:31:33;;;;;;;10.55;4.88;;;;;;;6.14;60.26;100324.19;5014848;28;20030;-65
2023/11/01 02:33:58;;;;;;;7.10;4.30;;;;;;;6.16;60.28;100322.38;5006050;28;20054;-66
2023/11/01 02:36:24;;;;;;;10.73;5.82;;;;;;;6.17;60.49;100308.50;4989580;28;20372;-66
2023/11/01 02:38:49;;;;;;;10.45;4.97;;;;;;;6.31;60.16;100316.75;5003979;28;20091;-67
2023/11/01 02:41:15;;;;;;;10.60;4.72;;;;;;;6.21;60.25;100304.91;5002916;28;20643;-66
2023/11/01 02:43:41;;;;;;;10.82;5.85;;;;;;;6.25;60.50;100306.53;4998180;28;20645;-67
2023/11/01 02:46:06;;;;;;;12.25;4.97;;;;;;;6.22;60.62;100299.69;4996659;28;20110;-67
2023/11/01 02:48:32;;;;;;;10.63;5.70;;;;;;;6.28;60.69;100298.66;5002487;28;20033;-66
2023/11/01 02:50:58;;;;;;;7.43;5.25;;;;;;;6.22;60.52;100296.25;5012961;28;20026;-66
2023/11/01 02:53:23;;;;;;;15.38;6.20;;;;;;;6.20;60.61;100288.50;4981932;28;20437;-66
2023/11/01 02:55:48;;;;;;;14.60;6.90;;;;;;;6.40;59.94;100281.88;4997489;28;20053;-67
2023/11/01 02:58:14;;;;;;;14.93;6.50;;;;;;;6.38;60.22;100279.31;4995639;28;20038;-65
2023/11/01 03:00:39;;;;;;;12.35;6.07;;;;;;;6.33;60.36;100286.41;4996491;28;20542;-66
2023/11/01 03:03:05;;;;;;;13.25;6.55;;;;;;;6.41;60.43;100271.44;4997514;28;20042;-67
2023/11/01 03:05:31;;;;;;;12.52;6.65;;;;;;;6.33;60.59;100268.25;5002169;28;20030;-68
2023/11/01 03:07:56;;;;;;;15.85;8.00;;;;;;;6.33;60.75;100262.19;4999447;28;20669;-65
2023/11/01 03:10:22;;;;;;;17.25;6.55;;;;;;;6.44;60.55;100258.38;4988973;28;20148;-73
2023/11/01 03:12:48;;;;;;;16.35;7.70;;;;;;;6.33;60.83;100257.88;4998878;28;20033;-71
2023/11/01 03:15:13;;;;;;;16.10;7.40;;;;;;;6.36;60.45;100255.16;4987433;28;20489;-73
2023/11/01 03:17:39;;;;;;;17.52;7.70;;;;;;;6.36;60.56;100251.72;4982600;28;20049;-70
2023/11/01 03:20:06;;;;;;;16.05;6.68;;;;;;;6.40;60.72;100248.97;4990882;28;20029;-70
2023/11/01 03:22:32;;;;;;;16.17;7.63;;;;;;;6.21;61.04;100253.03;4997214;28;20033;-70
2023/11/01 03:24:58;;;;;;;18.58;8.00;;;;;;;6.29;61.31;100245.88;5001303;28;20064;-69
2023/11/01 03:27:23;;;;;;;18.13;8.95;;;;;;;6.38;60.64;100245.59;4995484;28;20041;-69
2023/11/01 03:29:51;;;;;;;18.65;8.38;;;;;;;6.28;61.25;100244.16;5000262;28;20067;-69
2023/11/01 03:32:17;;;;;;;17.67;8.52;;;;;;;6.15;61.68;100242.81;4993132;28;20046;-68
2023/11/01 03:34:44;;;;;;;26.00;9.48;;;;;;;6.13;61.66;100244.63;4996090;28;20033;-68
2023/11/01 03:37:10;;;;;;;24.33;10.55;;;;;;;6.22;61.87;100245.19;4994463;28;20496;-72
2023/11/01 03:39:35;;;;;;;30.60;9.75;;;;;;;6.33;61.81;100247.47;5001127;28;20045;-71
2023/11/01 03:42:04;;;;;;;23.45;9.23;;;;;;;6.39;61.26;100246.41;4989841;28;20041;-68
2023/11/01 03:44:34;;;;;;;23.00;10.38;;;;;;;6.13;62.20;100249.81;4987716;28;20065;-74
2023/11/01 03:47:00;;;;;;;25.50;10.18;;;;;;;6.22;62.33;100244.34;5001980;28;20048;-73
2023/11/01 03:49:29;;;;;;;23.90;10.32;;;;;;;6.36;62.09;100247.38;4999503;28;20041;-72
2023/11/01 03:52:01;;;;;;;27.67;9.52;;;;;;;6.27;62.24;100243.28;4998468;28;20513;-71
2023/11/01 03:54:27;;;;;;;26.27;10.55;;;;;;;6.49;61.81;100251.25;5004220;28;20040;-70
2023/11/01 03:56:53;;;;;;;24.95;10.68;;;;;;;6.57;61.74;100255.34;4985227;28;20432;-74
2023/11/01 03:59:18;;;;;;;30.27;9.52;;;;;;;6.43;61.90;100254.06;4983975;28;20038;-74
2023/11/01 04:01:44;;;;;;;31.50;11.63;;;;;;;6.34;62.26;100251.75;5008060;28;20504;-74
2023/11/01 04:04:09;;;;;;;24.58;11.05;;;;;;;6.38;62.30;100249.94;4996858;28;20076;-76
2023/11/01 04:06:36;;;;;;;23.15;9.00;;;;;;;6.35;62.36;100243.09;5001686;28;20476;-76
2023/11/01 04:09:01;;;;;;;23.83;9.45;;;;;;;6.42;61.96;100234.19;4996808;28;20034;-74
2023/11/01 04:11:27;;;;;;;26.77;10.02;;;;;;;6.35;62.30;100230.13;5001653;28;21003;-75
2023/11/01 04:13:53;;;;;;;22.42;11.30;;;;;;;6.53;61.90;100226.06;4986654;28;20047;-66
2023/11/01 04:16:18;;;;;;;23.80;10.52;;;;;;;6.52;61.94;100228.69;5003788;28;20029;-66
2023/11/01 04:18:43;;;;;;;28.20;9.63;;;;;;;6.45;62.04;100241.88;5001231;28;20079;-68
2023/11/01 04:21:09;;;;;;;23.42;9.75;;;;;;;6.38;62.70;100232.59;4999910;28;20045;-68
2023/11/01 04:23:35;;;;;;;27.85;10.95;;;;;;;6.55;62.09;100224.25;5005112;28;20087;-68
2023/11/01 04:26:00;;;;;;;30.80;11.75;;;;;;;6.63;61.82;100224.00;5000115;28;20427;-68
2023/11/01 04:28:26;;;;;;;21.60;10.45;;;;;;;6.68;61.71;100216.88;4998672;28;20033;-66
2023/11/01 04:30:52;;;;;;;25.10;12.18;;;;;;;6.72;61.95;100221.09;5001057;28;20025;-66
2023/11/01 04:33:18;;;;;;;27.85;10.70;;;;;;;6.64;61.97;100225.69;5000063;28;20045;-73
2023/11/01 04:35:44;;;;;;;21.77;10.13;;;;;;;6.69;62.07;100218.59;5005149;28;20795;-73
2023/11/01 04:38:11;;;;;;;22.30;11.35;;;;;;;6.86;61.63;100213.69;5006855;28;20045;-73
2023/11/01 04:40:37;;;;;;;21.38;10.85;;;;;;;6.72;62.06;100202.91;5001086;28;20038;-73
2023/11/01 04:43:03;;;;;;;31.13;10.25;;;;;;;6.82;62.14;100217.28;5004146;28;20049;-73
2023/11/01 04:45:31;;;;;;;27.27;12.45;;;;;;;6.80;62.21;100200.06;4989376;28;20511;-71
2023/11/01 04:47:57;;;;;;;21.77;10.45;;;;;;;6.86;61.68;100199.81;5001403;28;20519;-71
2023/11/01 04:50:22;;;;;;;22.90;10.48;;;;;;;6.93;61.44;100198.69;5002273;28;20034;-72
2023/11/01 04:52:48;;;;;;;25.20;10.93;;;;;;;6.94;61.48;100205.59;5000118;28;20118;-71
2023/11/01 04:55:13;;;;;;;25.10;11.43;;;;;;;6.87;61.99;100197.19;4998074;28;20245;-77
2023/11/01 04:57:41;;;;;;;29.63;11.05;;;;;;;7.00;61.39;100200.19;4987671;28;20087;-72
2023/11/01 05:00:11;;;;;;;18.08;9.63;;;;;;;6.98;61.63;100194.19;5001544;28;20061;-71
2023/11/01 05:02:39;;;;;;;23.50;10.57;;;;;;;6.96;61.92;100192.56;4985396;28;20484;-70
2023/11/01 05:05:06;;;;;;;18.63;10.05;;;;;;;6.98;62.08;100193.34;5004892;28;20043;-71
2023/11/01 05:07:35;;;;;;;19.40;10.65;;;;;;;6.93;62.08;100196.09;4997739;28;20515;-68
2023/11/01 05:10:02;;;;;;;21.88;9.90;;;;;;;7.02;61.89;100188.00;5001505;28;20037;-70
2023/11/01 05:12:28;;;;;;;22.48;10.73;;;;;;;7.09;62.14;100193.81;4998232;28;20038;-71
2023/11/01 05:14:54;;;;;;;23.55;10.15;;;;;;;7.20;61.51;100189.06;5002141;28;20033;-71
2023/11/01 05:17:20;;;;;;;21.15;11.02;;;;;;;7.24;61.66;100177.63;4998949;28;20048;-68
2023/11/01 05:19:46;;;;;;;26.27;10.55;;;;;;;7.22;61.33;100174.28;5006361;28;20512;-70
2023/11/01 05:22:11;;;;;;;24.95;10.68;;;;;;;7.10;62.00;100172.09;4999261;28;20065;-70
2023/11/01 05:24:37;;;;;;;26.77;11.30;;;;;;;7.26;61.85;100173.22;5007891;28;20045;-73
2023/11/01 05:27:03;;;;;;;21.75;10.75;;;;;;;7.28;61.55;100174.03;5001135;28;20040;-71
2023/11/01 05:29:29;;;;;;;31.73;11.88;;;;;;;7.20;61.86;100173.47;4997793;28;20452;-68
2023/11/01 05:31:55;;;;;;;22.70;13.02;;;;;;;7.36;61.50;100165.13;4996144;28;20160;-70
2023/11/01 05:34:21;;;;;;;24.05;10.77;;;;;;;7.35;61.60;100159.03;4996544;28;20136;-71
2023/11/01 05:36:47;;;;;;;23.70;11.43;;;;;;;7.36;61.33;100165.13;5001227;28;20065;-70
2023/11/01 05:39:12;;;;;;;23.95;10.10;;;;;;;7.41;61.14;100156.22;5000179;28;20195;-69
2023/11/01 05:41:38;;;;;;;22.33;11.90;;;;;;;7.39;61.35;100154.59;5010252;28;20029;-70
2023/11/01 05:44:04;;;;;;;24.45;10.80;;;;;;;7.26;61.75;100154.19;5003087;28;20067;-70
2023/11/01 05:46:29;;;;;;;25.38;10.48;;;;;;;7.41;61.28;100150.19;5000394;28;20095;-70
2023/11/01 05:48:55;;;;;;;20.10;10.27;;;;;;;7.41;61.22;100152.78;5000580;28;20121;-69
2023/11/01 05:51:21;;;;;;;25.92;11.73;;;;;;;7.32;61.89;100152.22;4998622;28;20033;-69
2023/11/01 05:53:46;;;;;;;26.40;11.10;;;;;;;7.36;61.66;100145.16;5000981;28;20179;-70
2023/11/01 05:56:12;;;;;;;19.40;10.75;;;;;;;7.28;61.94;100145.44;4998251;28;20042;-71
2023/11/01 05:58:37;;;;;;;22.65;11.43;;;;;;;7.40;61.84;100154.53;5002576;28;20152;-72
2023/11/01 06:01:04;;;;;;;23.38;12.00;;;;;;;7.36;62.14;100147.75;4991447;28;20968;-71
2023/11/01 06:03:30;;;;;;;25.80;12.95;;;;;;;7.41;61.62;100150.19;4999641;28;20041;-69
2023/11/01 06:05:57;;;;;;;23.85;11.13;;;;;;;7.39;61.96;100139.00;4999661;28;20966;-69
2023/11/01 06:08:23;;;;;;;31.63;12.93;;;;;;;7.49;61.64;100148.13;4999025;28;20056;-70
2023/11/01 06:10:49;;;;;;;23.88;12.30;;;;;;;7.45;61.39;100144.78;4999910;28;20057;-71
2023/11/01 06:13:15;;;;;;;22.92;10.75;;;;;;;7.53;61.59;100145.34;4998139;28;20084;-68
2023/11/01 06:15:41;;;;;;;22.00;12.82;;;;;;;7.50;61.65;100144.63;4999683;28;20039;-70
2023/11/01 06:18:06;;;;;;;27.48;11.23;;;;;;;7.50;61.76;100139.41;4999513;28;20049;-69
2023/11/01 06:20:32;;;;;;;24.38;11.93;;;;;;;7.65;61.27;100141.44;4994434;28;20042;-69
2023/11/01 06:22:59;;;;;;;22.75;11.25;;;;;;;7.75;60.98;100144.53;4998922;28;20050;-69
2023/11/01 06:25:24;;;;;;;20.77;11.80;;;;;;;7.76;61.16;100142.75;4999016;28;20026;-70
2023/11/01 06:27:50;;;;;;;21.63;11.98;;;;;;;7.76;61.27;100151.44;4999703;28;20460;-69
2023/11/01 06:30:16;;;;;;;21.48;11.27;;;;;;;7.65;61.50;100138.84;4999353;28;20106;-69
2023/11/01 06:32:42;;;;;;;24.60;11.32;;;;;;;7.82;61.26;100138.16;4988985;28;20101;-69
2023/11/01 06:35:08;;;;;;;19.40;11.43;;;;;;;7.90;60.92;100132.66;4998561;28;20478;-71
2023/11/01 06:37:35;;;;;;;23.88;11.77;;;;;;;7.83;61.16;100131.22;4995835;28;20041;-71
2023/11/01 06:40:05;;;;;;;24.58;11.70;;;;;;;7.77;61.34;100134.06;5007030;28;20069;-71
2023/11/01 06:42:30;;;;;;;20.05;10.75;;;;;;;7.77;61.49;100126.25;4995496;28;20049;-70
2023/11/01 06:44:56;;;;;;;22.67;11.80;;;;;;;7.82;61.00;100129.50;5002632;28;20030;-70
2023/11/01 06:47:22;;;;;;;21.88;10.70;;;;;;;7.86;61.07;100118.09;4978854;28;20055;-72
2023/11/01 06:49:47;;;;;;;22.73;12.45;;;;;;;7.78;61.26;100122.75;4998457;28;20083;-69
2023/11/01 06:52:14;;;;;;;31.60;13.30;;;;;;;7.90;61.15;100117.06;4996330;28;20231;-72
2023/11/01 06:54:45;;;;;;;20.52;10.43;;;;;;;7.75;61.61;100115.91;5002313;28;20111;-69
2023/11/01 06:57:11;;;;;;;20.05;10.55;;;;;;;7.72;61.73;100116.88;4982711;28;20041;-70
2023/11/01 06:59:39;;;;;;;21.00;11.02;;;;;;;7.79;61.54;100109.69;4994129;28;20088;-69
2023/11/01 07:02:08;;;;;;;25.45;13.23;;;;;;;7.88;61.01;100117.09;5000703;28;20128;-69
2023/11/01 07:04:37;;;;;;;21.35;11.05;;;;;;;8.07;60.69;100119.81;4994637;28;20044;-72
2023/11/01 07:07:03;;;;;;;19.83;10.65;;;;;;;8.08;60.81;100113.69;4994259;28;20037;-69
2023/11/01 07:09:28;;;;;;;20.17;11.25;;;;;;;8.10;61.11;100109.25;5003747;28;20538;-72
2023/11/01 07:11:54;;;;;;;28.25;12.07;;;;;;;8.22;60.82;100114.88;4996129;28;20408;-69
2023/11/01 07:14:20;;;;;;;20.08;11.05;;;;;;;8.12;60.83;100115.25;4994586;28;20332;-71
2023/11/01 07:16:45;;;;;;;17.25;10.82;;;;;;;8.28;60.78;100114.63;4989382;28;20120;-70
2023/11/01 07:19:12;;;;;;;20.70;11.07;;;;;;;8.39;60.57;100109.78;4992150;28;20141;-70
2023/11/01 07:21:40;;;;;;;20.77;10.18;;;;;;;8.45;60.28;100106.94;4996440;28;20037;-70
2023/11/01 07:24:07;;;;;;;20.42;10.48;;;;;;;8.39;60.44;100104.59;4994498;28;20504;-70
2023/11/01 07:26:32;;;;;;;21.52;10.98;;;;;;;8.39;60.76;100101.13;4995285;28;20574;-69
2023/11/01 07:28:59;;;;;;;15.65;9.40;;;;;;;8.03;61.42;100101.78;4997091;28;20111;-69
2023/11/01 07:31:25;;;;;;;18.98;8.95;;;;;;;8.43;60.78;100100.94;4992871;28;20054;-70
2023/11/01 07:33:51;;;;;;;15.40;9.15;;;;;;;8.44;60.95;100096.56;5001757;28;20037;-69
2023/11/01 07:36:17;;;;;;;15.88;9.05;;;;;;;8.55;60.59;100095.19;5000681;28;20033;-69
2023/11/01 07:38:43;;;;;;;16.60;9.15;;;;;;;8.56;60.40;100090.81;4996280;28;20036;-70
2023/11/01 07:41:08;;;;;;;18.58;9.18;;;;;;;8.59;60.37;100093.28;5000212;28;20037;-69
2023/11/01 07:43:34;;;;;;;17.48;9.73;;;;;;;8.46;60.43;100094.75;5010655;28;20049;-68
2023/11/01 07:46:00;;;;;;;17.05;8.80;;;;;;;8.62;60.42;100089.72;5002425;28;20037;-69
2023/11/01 07:48:25;;;;;;;16.98;9.68;;;;;;;8.50;60.68;100086.72;4999165;28;20053;-69
2023/11/01 07:50:50;;;;;;;19.45;9.90;;;;;;;8.64;60.42;100085.28;5008729;28;20032;-72
2023/11/01 07:53:16;;;;;;;15.35;9.30;;;;;;;8.67;60.13;100083.41;5003896;28;20076;-70
2023/11/01 07:55:41;;;;;;;16.38;9.35;;;;;;;8.76;60.16;100089.97;5001506;28;20067;-70
2023/11/01 07:58:07;;;;;;;17.45;8.68;;;;;;;8.70;60.29;100083.25;5000943;28;20060;-70
2023/11/01 08:00:33;;;;;;;19.17;8.15;;;;;;;8.92;59.56;100090.13;5001173;28;20464;-70
2023/11/01 08:02:59;;;;;;;17.23;7.85;;;;;;;8.98;59.40;100072.47;5001452;28;20038;-70
2023/11/01 08:05:24;;;;;;;18.02;8.20;;;;;;;9.13;59.08;100076.09;4984474;28;20154;-70
2023/11/01 08:07:50;;;;;;;12.25;7.25;;;;;;;9.14;59.08;100072.59;5002923;28;20092;-70
2023/11/01 08:10:15;;;;;;;13.40;7.28;;;;;;;9.26;58.79;100068.53;4987994;28;20143;-70
2023/11/01 08:12:41;;;;;;;13.48;7.05;;;;;;;9.27;58.89;100067.63;5007790;28;20041;-71
2023/11/01 08:15:07;;;;;;;13.85;6.97;;;;;;;9.07;58.99;100065.09;4986929;28;20408;-70
2023/11/01 08:17:32;;;;;;;11.32;7.60;;;;;;;9.18;58.41;100053.25;4990351;28;20041;-71
2023/11/01 08:19:58;;;;;;;13.05;7.53;;;;;;;9.26;58.82;100050.28;5002438;28;22503;-70
2023/11/01 08:22:25;;;;;;;17.73;7.60;;;;;;;9.12;59.08;100044.88;5002653;28;20511;-70
2023/11/01 08:24:50;;;;;;;15.15;8.10;;;;;;;9.21;58.69;100046.19;5010781;28;20029;-71
2023/11/01 08:27:16;;;;;;;13.77;8.05;;;;;;;9.37;58.58;100045.41;5016704;28;20048;-70
2023/11/01 08:29:42;;;;;;;15.20;8.35;;;;;;;9.22;58.52;100046.13;5002605;28;20040;-71
2023/11/01 08:32:11;;;;;;;15.15;7.78;;;;;;;9.11;59.08;100045.81;5003953;28;20087;-70
2023/11/01 08:34:37;;;;;;;18.35;8.98;;;;;;;9.13;59.19;100046.56;5007888;28;20107;-70
2023/11/01 08:37:06;;;;;;;19.08;9.60;;;;;;;9.02;59.42;100041.88;5000925;28;20046;-70
2023/11/01 08:39:32;;;;;;;19.92;8.60;;;;;;;9.33;58.64;100043.88;4989528;28;20040;-70
2023/11/01 08:42:00;;;;;;;17.88;9.30;;;;;;;9.42;58.77;100042.56;5007826;28;20211;-70
2023/11/01 08:44:25;;;;;;;17.67;8.43;;;;;;;9.47;58.35;100037.13;4999625;28;20028;-69
2023/11/01 08:46:53;;;;;;;15.00;9.65;;;;;;;9.26;59.49;100033.81;5001560;28;20040;-70
2023/11/01 08:49:19;;;;;;;15.68;9.35;;;;;;;9.34;58.79;100037.75;5000202;28;20030;-69
2023/11/01 08:51:46;;;;;;;12.30;8.60;;;;;;;9.44;58.91;100032.91;4997633;28;20952;-70
2023/11/01 08:54:11;;;;;;;15.80;9.75;;;;;;;9.68;58.39;100030.88;5000901;28;20038;-69
2023/11/01 08:56:37;;;;;;;23.92;9.88;;;;;;;9.70;58.54;100033.38;4996952;28;20247;-70
2023/11/01 08:59:04;;;;;;;16.23;11.00;;;;;;;9.65;58.29;100033.63;5008127;28;20056;-70
2023/11/01 09:01:36;;;;;;;17.65;9.80;;;;;;;9.66;58.36;100027.50;5000147;28;20036;-69
2023/11/01 09:04:04;;;;;;;21.25;11.57;;;;;;;9.73;57.99;100036.69;5010305;28;20033;-70
2023/11/01 09:06:32;;;;;;;16.63;9.55;;;;;;;9.77;58.16;100019.97;4997487;28;20080;-70
2023/11/01 09:09:07;;;;;;;18.05;10.60;;;;;;;9.45;58.23;100028.53;4989173;28;20485;-70
2023/11/01 09:11:35;;;;;;;14.90;9.93;;;;;;;9.72;58.20;100021.97;4996813;28;20512;-70
2023/11/01 09:14:02;;;;;;;23.88;10.60;;;;;;;9.36;59.35;100011.56;5000112;28;20086;-70
2023/11/01 09:16:27;;;;;;;17.05;9.55;;;;;;;9.84;58.28;100011.88;5001589;28;20041;-70
2023/11/01 09:18:53;;;;;;;19.08;9.45;;;;;;;9.79;58.28;100012.06;5007769;28;20037;-70
2023/11/01 09:21:21;;;;;;;16.58;9.77;;;;;;;9.84;58.44;100011.88;4999215;28;20107;-70
2023/11/01 09:23:46;;;;;;;13.90;8.35;;;;;;;9.41;59.97;100007.00;4997708;28;20730;-70
2023/11/01 09:26:15;;;;;;;17.83;9.68;;;;;;;10.09;58.47;100009.69;5005449;28;20065;-70
2023/11/01 09:28:40;;;;;;;18.02;9.13;;;;;;;10.07;57.69;100000.25;4996922;28;20037;-70
2023/11/01 09:31:05;;;;;;;11.45;7.90;;;;;;;10.13;57.55;100007.78;5003685;28;20064;-70
2023/11/01 09:33:36;;;;;;;14.85;7.68;;;;;;;10.29;57.32;100002.59;5000404;28;20041;-70
2023/11/01 09:36:01;;;;;;;14.05;6.97;;;;;;;10.07;57.70;100000.25;5002962;28;20592;-70
2023/11/01 09:38:26;;;;;;;14.20;7.07;;;;;;;9.89;57.90;100008.09;4999416;28;20076;-69
2023/11/01 09:40:55;;;;;;;16.15;8.13;;;;;;;10.02;57.32;99993.50;5004322;28;20038;-70
2023/11/01 09:43:27;;;;;;;11.30;6.88;;;;;;;10.07;56.97;99993.25;4999377;28;20087;-70
2023/11/01 09:45:53;;;;;;;13.57;7.88;;;;;;;9.98;57.36;99988.50;4998650;28;20052;-70
2023/11/01 09:48:18;;;;;;;10.57;7.10;;;;;;;9.85;57.87;99996.13;5000076;28;20052;-70
2023/11/01 09:50:48;;;;;;;8.23;5.88;;;;;;;9.96;57.63;99985.13;5005761;28;20400;-69
2023/11/01 09:53:16;;;;;;;10.15;6.15;;;;;;;9.91;57.63;99987.16;4987782;28;20068;-70
2023/11/01 09:55:43;;;;;;;11.02;7.15;;;;;;;9.82;57.57;99995.44;5005000;28;20048;-70
2023/11/01 09:58:10;;;;;;;10.55;6.75;;;;;;;9.66;58.40;99990.13;4993403;28;20054;-69
2023/11/01 10:00:38;;;;;;;9.05;6.28;;;;;;;9.69;58.37;99988.19;4997302;28;20559;-69
2023/11/01 10:03:03;;;;;;;10.63;6.00;;;;;;;9.85;58.23;99985.69;4992053;28;20405;-69
2023/11/01 10:05:29;;;;;;;9.98;5.63;;;;;;;9.64;58.97;99976.31;4983116;28;20059;-69
2023/11/01 10:07:57;;;;;;;9.50;4.85;;;;;;;9.44;59.63;99987.75;4988359;28;20041;-69
2023/11/01 10:10:25;;;;;;;7.82;5.20;;;;;;;9.65;59.11;99978.00;5003314;28;20034;-70
2023/11/01 10:12:52;;;;;;;7.28;5.43;;;;;;;9.67;59.16;99982.19;4994876;28;20061;-69
2023/11/01 10:15:24;;;;;;;7.60;5.28;;;;;;;9.65;59.29;99973.59;4999303;28;20065;-69
2023/11/01 10:17:52;;;;;;;7.20;5.60;;;;;;;9.27;60.64;99973.75;4996344;28;20045;-69
2023/11/01 10:20:25;;;;;;;7.28;5.68;;;;;;;9.45;60.35;99965.94;5002728;28;20037;-69
2023/11/01 10:22:52;;;;;;;11.45;5.05;;;;;;;9.09;61.84;99959.00;4993370;28;20041;-69
2023/11/01 10:25:22;;;;;;;11.95;4.88;;;;;;;9.48;60.64;99960.59;5005649;28;20053;-71
2023/11/01 10:27:48;;;;;;;8.65;4.32;;;;;;;9.53;60.93;99954.22;4995593;28;20049;-68
2023/11/01 10:30:14;;;;;;;6.93;5.05;;;;;;;9.57;60.65;99957.50;5000314;28;20033;-68
2023/11/01 10:32:53;;;;;;;8.32;4.70;;;;;;;9.61;61.02;99951.22;4996021;28;20124;-68
2023/11/01 10:35:19;;;;;;;8.85;4.60;;;;;;;9.50;60.94;99948.28;5009219;28;20495;-69
2023/11/01 10:37:47;;;;;;;5.55;3.95;;;;;;;9.59;60.89;99947.84;5002144;28;20042;-68
2023/11/01 10:40:16;;;;;;;5.05;3.78;;;;;;;9.35;61.52;99950.75;4999991;28;20693;-67
2023/11/01 10:42:55;;;;;;;5.68;3.08;;;;;;;9.26;61.88;99946.00;4981326;28;20146;-69
2023/11/01 10:45:21;;;;;;;5.30;2.95;;;;;;;9.47;61.42;99948.44;4998587;28;20044;-69
2023/11/01 10:47:47;;;;;;;4.65;3.03;;;;;;;9.65;61.07;99937.06;4976018;28;20042;-68
2023/11/01 10:50:13;;;;;;;3.33;2.85;;;;;;;9.60;61.30;99933.88;5000197;28;20048;-67
2023/11/01 10:52:43;;;;;;;3.08;2.25;;;;;;;9.55;61.33;99925.44;4995293;28;20053;-68
2023/11/01 10:55:12;;;;;;;3.20;2.20;;;;;;;9.48;61.77;99924.91;5000260;28;20049;-69
2023/11/01 10:57:41;;;;;;;7.03;2.25;;;;;;;9.38;62.10;99927.13;4992606;28;20042;-68
2023/11/01 11:00:26;;;;;;;3.53;1.90;;;;;;;9.63;61.73;99923.25;4999326;28;20711;-70
2023/11/01 11:03:04;;;;;;;2.20;1.42;;;;;;;9.50;62.10;99919.59;4995090;28;20049;-67
2023/11/01 11:05:30;;;;;;;1.60;1.38;;;;;;;9.47;62.22;99906.72;4999488;28;20045;-70
2023/11/01 11:07:59;;;;;;;1.85;1.35;;;;;;;9.46;62.43;99911.09;4994526;28;20049;-70
2023/11/01 11:10:34;;;;;;;1.77;1.08;;;;;;;9.48;62.41;99901.44;5003705;28;20096;-70
2023/11/01 11:13:09;;;;;;;3.53;0.77;;;;;;;9.55;62.63;99894.97;5000149;28;20065;-70
2023/11/01 11:15:46;;;;;;;1.25;0.80;;;;;;;9.70;62.48;99898.56;4996242;28;20045;-68
2023/11/01 11:18:25;;;;;;;1.42;0.60;;;;;;;9.60;62.61;99886.91;4998885;28;20046;-68
2023/11/01 11:20:52;;;;;;;2.15;0.63;;;;;;;9.66;62.88;99885.75;4997130;28;20037;-68
2023/11/01 11:23:31;;;;;;;1.85;0.95;;;;;;;9.85;62.20;99883.88;5002123;28;20500;-70